Time;durP1;ratioP1;P1;durP2;ratioP2;P2;SDS_P1;SDS_P2;PMS_P1;PMS_P2;Temp;Humidity;BMP_temperature;BMP_pressure;BME280_temperature;BME280_humidity;BME280_pressure;Samples;Min_cycle;Max_cycle;Signal;HPM_P1;HPM_P2
2023/01/05 00:00:03;;;;;;;;;1.00;1.00;;;;;20.64;60.43;99613.67;105456;1300;19621;-65
2023/01/05 00:02:31;;;;;;;;;1.00;1.00;;;;;20.64;60.39;99598.89;105440;1291;20727;-66
2023/01/05 00:04:59;;;;;;;;;1.00;1.00;;;;;20.65;60.32;99590.27;105437;1283;21557;-67
2023/01/05 00:07:26;;;;;;;;;1.00;1.00;;;;;20.64;60.26;99580.33;105455;1294;22972;-65
2023/01/05 00:09:54;;;;;;;;;1.00;1.00;;;;;20.65;60.31;99569.23;105432;1291;20928;-65
2023/01/05 00:23:21;;;;;;;;;1.00;1.00;;;;;20.63;60.34;99544.98;105411;1298;19820;-64
2023/01/05 00:25:48;;;;;;;;;1.00;1.00;;;;;20.62;60.19;99547.02;105439;1297;19361;-65
2023/01/05 00:28:16;;;;;;;;;1.00;1.00;;;;;20.63;60.30;99548.27;105469;1284;23517;-65
2023/01/05 00:30:43;;;;;;;;;1.00;1.00;;;;;20.62;60.51;99546.31;105484;1294;19254;-66
2023/01/05 00:33:11;;;;;;;;;1.00;1.00;;;;;20.63;60.45;99548.23;105449;1297;19316;-65
2023/01/05 00:35:38;;;;;;;;;1.00;1.00;;;;;20.63;60.26;99546.10;105552;1282;23106;-65
2023/01/05 00:38:05;;;;;;;;;1.00;1.00;;;;;20.64;60.23;99544.86;105364;1275;19072;-66
2023/01/05 00:40:33;;;;;;;;;1.00;1.00;;;;;20.63;60.40;99540.98;105449;1297;19248;-66
2023/01/05 00:43:00;;;;;;;;;1.00;1.00;;;;;20.62;60.30;99537.51;105494;1275;21578;-66
2023/01/05 00:45:27;;;;;;;;;1.00;1.00;;;;;20.61;60.33;99536.33;105500;1282;19589;-66
2023/01/05 00:47:55;;;;;;;;;1.00;1.00;;;;;20.62;60.36;99535.49;105474;1297;22451;-65
2023/01/05 00:50:22;;;;;;;;;1.00;1.00;;;;;20.62;60.29;99532.11;105416;1274;20048;-64
2023/01/05 00:52:49;;;;;;;;;1.00;1.00;;;;;20.61;60.39;99529.67;105423;1284;23644;-64
2023/01/05 00:55:17;;;;;;;;;1.00;1.00;;;;;20.60;60.36;99522.69;105401;1282;23618;-64
2023/01/05 00:57:45;;;;;;;;;1.00;1.00;;;;;20.61;60.47;99527.25;105412;1282;20067;-65
2023/01/05 01:00:12;;;;;;;;;1.00;1.00;;;;;20.60;60.33;99518.83;105541;1297;19178;-66
2023/01/05 01:02:39;;;;;;;;;;;;;;;20.61;60.30;99512.80;105432;1279;19213;-66
2023/01/05 01:05:07;;;;;;;;;;;;;;;20.61;60.37;99514.55;105442;1282;20124;-65
2023/01/05 01:07:34;;;;;;;;;1.00;1.00;;;;;20.60;60.26;99513.05;105467;1297;24956;-66
2023/01/05 01:10:01;;;;;;;;;;;;;;;20.59;60.27;99516.98;105475;1290;20778;-65
2023/01/05 01:12:29;;;;;;;;;1.00;1.00;;;;;20.60;60.33;99517.48;105446;1305;20189;-65
2023/01/05 01:14:56;;;;;;;;;1.00;1.00;;;;;20.59;60.39;99515.52;105471;1297;19194;-66
2023/01/05 01:17:24;;;;;;;;;1.00;1.00;;;;;20.60;60.17;99516.66;105418;1283;23163;-65
2023/01/05 01:19:51;;;;;;;;;1.00;1.00;;;;;20.60;60.32;99519.25;105490;1300;20057;-65
2023/01/05 01:22:18;;;;;;;;;1.00;1.00;;;;;20.59;60.34;99521.55;105488;1281;19172;-64
2023/01/05 01:24:46;;;;;;;;;1.00;1.00;;;;;20.59;60.38;99520.44;105441;1297;19261;-66
2023/01/05 01:27:13;;;;;;;;;1.00;1.00;;;;;20.59;60.28;99520.22;105461;1282;22540;-66
2023/01/05 01:29:40;;;;;;;;;1.00;1.00;;;;;20.58;60.08;99515.10;105550;1291;19843;-66
2023/01/05 01:32:08;;;;;;;;;1.00;1.00;;;;;20.59;60.31;99514.73;105353;1289;19109;-65
2023/01/05 01:34:35;;;;;;;;;1.00;1.00;;;;;20.58;60.21;99513.71;105343;1291;21645;-66
2023/01/05 01:37:02;;;;;;;;;1.00;1.00;;;;;20.57;60.13;99511.04;105477;1282;19625;-66
2023/01/05 01:39:30;;;;;;;;;1.00;1.00;;;;;20.59;60.26;99509.08;105549;1274;20839;-65
2023/01/05 01:41:57;;;;;;;;;1.00;1.00;;;;;20.58;60.21;99505.30;105522;1278;20044;-66
2023/01/05 01:44:25;;;;;;;;;1.00;1.00;;;;;20.58;60.44;99510.16;105442;1275;19294;-66
2023/01/05 01:46:52;;;;;;;;;1.00;1.00;;;;;20.58;60.23;99502.66;105608;1300;19310;-65
2023/01/05 01:49:19;;;;;;;;;1.00;1.00;;;;;20.57;60.28;99501.82;105505;1284;22612;-66
2023/01/05 01:51:46;;;;;;;;;1.00;1.00;;;;;20.57;60.34;99498.21;105409;1282;19178;-66
2023/01/05 01:54:14;;;;;;;;;1.00;1.00;;;;;20.56;60.21;99497.79;105513;1282;19337;-66
2023/01/05 01:56:41;;;;;;;;;1.00;1.00;;;;;20.56;60.16;99497.95;105485;1289;20063;-66
2023/01/05 01:59:08;;;;;;;;;1.00;1.00;;;;;20.57;60.14;99495.65;105431;1291;22909;-65
2023/01/05 02:01:36;;;;;;;;;1.00;1.00;;;;;20.56;60.13;99493.06;105504;1290;20758;-65
2023/01/05 02:04:03;;;;;;;;;1.00;1.00;;;;;20.56;60.21;99490.33;105474;1275;22752;-65
2023/01/05 02:06:30;;;;;;;;;1.00;1.00;;;;;20.56;60.16;99485.31;105475;1298;19558;-65
2023/01/05 02:08:58;;;;;;;;;1.00;1.00;;;;;20.56;60.22;99481.88;105492;1300;19293;-65
2023/01/05 02:11:25;;;;;;;;;1.00;1.00;;;;;20.55;60.28;99478.65;105386;1275;23496;-65
2023/01/05 02:13:53;;;;;;;;;1.00;1.00;;;;;20.55;60.20;99475.77;105523;1275;19132;-66
2023/01/05 02:16:20;;;;;;;;;1.00;1.00;;;;;20.55;60.27;99473.09;105522;1275;19228;-66
2023/01/05 02:18:47;;;;;;;;;1.00;1.00;;;;;20.55;60.25;99472.54;105521;1275;19983;-65
2023/01/05 02:21:15;;;;;;;;;1.00;1.00;;;;;20.54;60.30;99463.75;105461;1297;19133;-65
2023/01/05 02:23:42;;;;;;;;;1.00;1.00;;;;;20.53;60.20;99460.73;105434;1300;19224;-65
2023/01/05 02:26:09;;;;;;;;;1.00;1.00;;;;;20.55;60.30;99462.20;105428;1292;21732;-65
2023/01/05 02:28:37;;;;;;;;;1.00;1.00;;;;;20.53;60.11;99463.83;105489;1297;23591;-65
2023/01/05 02:31:04;;;;;;;;;1.00;1.00;;;;;20.54;60.21;99462.66;105467;1275;20699;-65
2023/01/05 02:33:31;;;;;;;;;1.00;1.00;;;;;20.55;60.13;99458.59;105574;1297;21538;-66
2023/01/05 02:35:59;;;;;;;;;1.00;1.00;;;;;20.54;60.12;99463.70;105428;1301;24301;-64
2023/01/05 02:38:26;;;;;;;;;1.00;1.00;;;;;20.55;60.12;99469.40;105453;1281;22988;-65
2023/01/05 02:40:53;;;;;;;;;1.00;1.00;;;;;20.55;60.23;99464.66;105490;1282;21537;-65
2023/01/05 02:43:21;;;;;;;;;1.00;1.00;;;;;20.56;60.12;99464.08;105517;1290;19073;-65
2023/01/05 02:45:48;;;;;;;;;1.00;1.00;;;;;20.55;60.19;99455.63;105467;1298;23012;-65
2023/01/05 02:48:15;;;;;;;;;1.00;1.00;;;;;20.53;60.11;99460.08;105507;1275;20093;-64
2023/01/05 02:50:43;;;;;;;;;1.00;1.00;;;;;20.53;60.35;99458.94;105457;1284;22125;-64
2023/01/05 02:53:10;;;;;;;;;1.00;1.00;;;;;20.53;60.04;99454.99;105437;1298;19346;-65
2023/01/05 02:55:37;;;;;;;;;1.00;1.00;;;;;20.53;60.13;99454.66;105545;1282;20093;-66
2023/01/05 02:58:05;;;;;;;;;1.00;1.00;;;;;20.53;60.33;99449.92;105541;1297;19755;-66
2023/01/05 03:00:32;;;;;;;;;1.00;1.00;;;;;20.52;60.14;99441.85;105523;1297;19416;-66
2023/01/05 03:02:59;;;;;;;;;1.00;1.00;;;;;20.53;60.08;99438.01;105475;1300;22694;-66
2023/01/05 03:05:27;;;;;;;;;1.00;1.00;;;;;20.53;59.99;99435.61;105426;1282;19577;-66
2023/01/05 03:08:05;;;;;;;;;1.00;1.00;;;;;20.53;60.15;99429.96;105509;1300;19328;-65
2023/01/05 03:16:04;;;;;;;;;1.00;1.00;;;;;20.51;60.10;99439.20;105475;1298;23249;-65
2023/01/05 03:18:31;;;;;;;;;1.00;1.00;;;;;20.51;60.08;99442.67;105436;1298;21631;-64
2023/01/05 03:20:59;;;;;;;;;;;;;;;20.52;59.99;99439.74;105456;1305;19224;-65
2023/01/05 03:37:12;;;;;;;;;;;;;;;20.50;59.98;99440.11;105514;1291;19663;-65
2023/01/05 03:39:39;;;;;;;;;1.00;1.00;;;;;20.50;60.12;99443.96;105466;1297;19424;-65
2023/01/05 03:42:06;;;;;;;;;1.00;1.00;;;;;20.51;60.08;99455.77;105475;1298;22973;-65
2023/01/05 03:44:34;;;;;;;;;1.00;1.00;;;;;20.51;60.12;99458.33;105438;1283;19618;-65
2023/01/05 03:47:01;;;;;;;;;1.00;1.00;;;;;20.51;59.99;99455.64;105446;1284;22079;-64
2023/01/05 03:49:28;;;;;;;;;1.00;1.00;;;;;20.51;60.03;99453.70;105500;1296;21574;-65
2023/01/05 03:51:56;;;;;;;;;1.00;1.00;;;;;20.51;60.18;99457.65;105490;1282;19345;-65
2023/01/05 03:54:23;;;;;;;;;;;;;;;20.51;60.14;99452.55;105475;1297;19333;-65
2023/01/05 03:56:50;;;;;;;;;1.00;1.00;;;;;20.50;60.14;99450.25;105453;1282;20082;-65
2023/01/05 03:59:18;;;;;;;;;1.00;1.00;;;;;20.51;60.16;99452.72;105411;1282;19371;-66
2023/01/05 04:01:45;;;;;;;;;1.00;1.00;;;;;20.51;60.12;99453.42;105455;1300;19100;-65
2023/01/05 04:04:12;;;;;;;;;1.50;1.00;;;;;20.51;60.02;99447.65;105424;1298;20257;-65
2023/01/05 04:06:40;;;;;;;;;1.00;1.00;;;;;20.51;59.84;99449.25;105458;1297;20822;-66
2023/01/05 04:09:07;;;;;;;;;1.00;1.00;;;;;20.51;60.18;99449.02;105463;1282;19677;-67
2023/01/05 04:11:34;;;;;;;;;1.00;1.00;;;;;20.50;59.95;99447.06;105452;1275;20053;-65
2023/01/05 04:14:02;;;;;;;;;1.00;1.00;;;;;20.51;60.01;99453.10;105513;1297;20991;-65
2023/01/05 04:16:29;;;;;;;;;;;;;;;20.51;59.85;99453.84;105485;1289;20777;-65
2023/01/05 04:18:57;;;;;;;;;1.00;1.00;;;;;20.50;60.08;99451.80;105484;1298;20041;-65
2023/01/05 04:21:24;;;;;;;;;1.00;1.00;;;;;20.50;59.98;99453.39;105470;1282;22905;-64
2023/01/05 04:23:51;;;;;;;;;1.00;1.00;;;;;20.49;60.10;99454.23;105464;1291;20761;-65
2023/01/05 04:26:19;;;;;;;;;1.00;1.00;;;;;20.49;60.19;99454.77;105448;1289;21478;-65
2023/01/05 04:28:46;;;;;;;;;1.00;1.00;;;;;20.49;60.16;99454.06;105599;1297;19118;-66
2023/01/05 04:31:13;;;;;;;;;1.00;1.00;;;;;20.49;59.94;99454.94;105487;1289;19329;-65
2023/01/05 04:33:44;;;;;;;;;1.00;1.00;;;;;20.49;60.09;99455.86;105534;1297;20065;-65
2023/01/05 04:36:11;;;;;;;;;1.00;1.00;;;;;20.49;60.09;99451.38;105485;1289;19518;-67
2023/01/05 04:38:38;;;;;;;;;1.00;1.00;;;;;20.50;60.18;99459.80;105418;1291;20780;-66
2023/01/05 04:41:06;;;;;;;;;1.00;1.00;;;;;20.49;60.03;99459.50;105448;1297;20035;-66
2023/01/05 04:43:33;;;;;;;;;1.00;1.00;;;;;20.48;59.88;99455.61;105567;1298;19071;-66
2023/01/05 04:46:00;;;;;;;;;1.00;1.00;;;;;20.48;59.96;99454.39;105496;1297;23631;-65
2023/01/05 04:48:30;;;;;;;;;;;;;;;20.47;60.04;99453.98;105523;1282;19937;-65
2023/01/05 04:50:57;;;;;;;;;1.50;1.00;;;;;20.46;59.77;99451.39;105427;1282;19079;-64
2023/01/05 04:53:25;;;;;;;;;1.00;1.00;;;;;20.47;59.97;99452.48;105562;1297;19241;-65
2023/01/05 04:55:52;;;;;;;;;1.00;1.00;;;;;20.48;59.81;99452.27;105472;1297;22706;-65
2023/01/05 04:58:19;;;;;;;;;1.00;1.00;;;;;20.48;59.96;99449.34;105474;1297;19156;-64
2023/01/05 05:00:47;;;;;;;;;;;;;;;20.47;59.91;99449.20;105478;1291;20725;-66
2023/01/05 05:03:14;;;;;;;;;1.00;1.00;;;;;20.47;59.77;99448.70;105483;1305;20034;-63
2023/01/05 05:05:41;;;;;;;;;1.00;1.00;;;;;20.47;59.76;99445.86;105472;1290;19079;-65
2023/01/05 05:08:09;;;;;;;;;1.00;1.00;;;;;20.48;59.73;99453.48;105448;1297;19221;-65
2023/01/05 05:10:36;;;;;;;;;1.00;1.00;;;;;20.48;59.66;99452.42;105518;1282;21558;-65
2023/01/05 05:13:03;;;;;;;;;1.00;1.00;;;;;20.47;59.68;99448.38;105496;1297;20649;-64
2023/01/05 05:15:31;;;;;;;;;1.00;1.00;;;;;20.46;59.56;99448.45;105468;1297;19121;-65
2023/01/05 05:17:58;;;;;;;;;1.00;1.00;;;;;20.46;59.79;99450.30;105532;1288;21529;-66
2023/01/05 05:20:25;;;;;;;;;1.00;1.00;;;;;20.46;59.58;99450.63;105420;1291;19774;-66
2023/01/05 05:22:53;;;;;;;;;1.00;1.00;;;;;20.47;59.40;99445.86;105507;1282;21182;-65
2023/01/05 05:25:20;;;;;;;;;1.00;1.00;;;;;20.46;59.66;99450.30;105469;1297;20042;-65
2023/01/05 05:27:47;;;;;;;;;1.00;1.00;;;;;20.46;59.65;99451.34;105513;1282;22551;-66
2023/01/05 05:30:15;;;;;;;;;1.00;1.00;;;;;20.46;59.76;99450.19;105487;1289;76460;-66
2023/01/05 05:32:42;;;;;;;;;1.00;1.00;;;;;20.47;59.66;99454.40;105552;1297;21582;-66
2023/01/05 05:35:10;;;;;;;;;1.00;1.00;;;;;20.46;59.77;99457.59;105505;1289;19610;-66
2023/01/05 05:37:38;;;;;;;;;1.00;1.00;;;;;20.45;59.73;99458.90;105538;1298;18932;-67
2023/01/05 05:40:05;;;;;;;;;1.00;1.00;;;;;20.46;59.77;99459.20;105430;1282;20170;-66
2023/01/05 05:42:32;;;;;;;;;1.00;1.00;;;;;20.45;59.48;99457.17;105424;1289;24307;-67
2023/01/05 05:45:00;;;;;;;;;1.00;1.00;;;;;20.45;59.73;99455.34;105408;1284;20778;-67
2023/01/05 05:47:27;;;;;;;;;;;;;;;20.44;59.72;99453.93;105555;1281;20066;-65
2023/01/05 05:49:54;;;;;;;;;1.00;1.00;;;;;20.45;59.83;99455.70;105499;1292;19354;-65
2023/01/05 05:52:22;;;;;;;;;1.00;1.00;;;;;20.44;59.72;99451.58;105407;1282;19262;-65
2023/01/05 05:54:49;;;;;;;;;1.00;1.00;;;;;20.44;59.71;99457.45;105467;1289;20086;-65
2023/01/05 05:57:16;;;;;;;;;1.00;1.00;;;;;20.45;59.48;99457.13;105447;1289;19640;-66
2023/01/05 05:59:44;;;;;;;;;;;;;;;20.45;59.67;99454.92;105427;1300;21455;-65
2023/01/05 06:02:11;;;;;;;;;1.00;1.00;;;;;20.45;59.78;99448.45;105470;1298;21451;-66
2023/01/05 06:04:39;;;;;;;;;1.00;1.00;;;;;20.44;59.60;99455.73;105480;1282;22356;-65
2023/01/05 06:07:06;;;;;;;;;1.00;1.00;;;;;20.45;59.76;99453.15;105474;1282;20758;-65
2023/01/05 06:09:33;;;;;;;;;1.00;1.00;;;;;20.45;59.75;99458.22;105504;1283;21882;-66
2023/01/05 06:12:01;;;;;;;;;1.00;1.00;;;;;20.44;59.72;99457.07;105496;1274;23135;-65
2023/01/05 06:14:28;;;;;;;;;1.00;1.00;;;;;20.44;59.75;99458.83;105407;1275;20740;-66
2023/01/05 06:16:55;;;;;;;;;1.00;1.00;;;;;20.44;59.63;99460.67;105444;1274;21533;-66
2023/01/05 06:19:23;;;;;;;;;1.00;1.00;;;;;20.44;59.90;99463.44;105455;1298;36965;-66
2023/01/05 06:21:50;;;;;;;;;1.00;1.00;;;;;20.44;59.90;99468.92;105536;1289;20790;-66
2023/01/05 06:24:17;;;;;;;;;1.00;1.00;;;;;20.43;59.68;99474.56;105598;1281;20011;-66
2023/01/05 06:26:45;;;;;;;;;1.00;1.00;;;;;20.43;59.63;99475.74;105466;1291;24052;-66
2023/01/05 06:29:12;;;;;;;;;1.00;1.00;;;;;20.44;59.77;99502.83;105512;1275;19090;-65
2023/01/05 06:31:40;;;;;;;;;1.00;1.00;;;;;20.44;59.67;99534.36;105433;1289;20132;-65
2023/01/05 06:34:07;;;;;;;;;1.00;1.00;;;;;20.44;59.98;99529.09;105465;1298;19583;-65
2023/01/05 06:36:34;;;;;;;;;1.00;1.00;;;;;20.43;59.65;99517.41;105462;1298;19388;-66
2023/01/05 06:39:02;;;;;;;;;1.00;1.00;;;;;20.43;59.71;99516.65;105591;1298;23142;-67
2023/01/05 06:41:29;;;;;;;;;1.00;1.00;;;;;20.43;59.61;99522.55;105474;1282;19543;-66
2023/01/05 06:43:57;;;;;;;;;1.00;1.00;;;;;20.44;59.73;99528.63;105449;1275;19318;-67
2023/01/05 06:46:24;;;;;;;;;1.00;1.00;;;;;20.44;59.67;99536.16;105472;1283;22807;-66
2023/01/05 06:48:51;;;;;;;;;1.00;1.00;;;;;20.45;59.62;99538.37;105558;1281;19617;-66
2023/01/05 06:51:19;;;;;;;;;2.00;2.00;;;;;20.46;59.57;99548.34;105404;1290;22600;-66
2023/01/05 06:53:46;;;;;;;;;1.00;1.00;;;;;20.29;58.40;99548.16;105468;1282;20113;-66
2023/01/05 06:56:13;;;;;;;;;1.50;1.50;;;;;20.20;57.64;99553.90;105394;1282;23391;-66
2023/01/05 06:58:41;;;;;;;;;1.00;1.00;;;;;20.23;57.39;99554.93;105472;1282;19249;-65
2023/01/05 07:01:08;;;;;;;;;2.00;2.00;;;;;20.27;57.22;99558.20;105494;1291;21647;-65
2023/01/05 07:03:35;;;;;;;;;1.00;1.00;;;;;20.31;57.28;99560.10;105324;1298;20986;-65
2023/01/05 07:06:04;;;;;;;;;1.00;1.00;;;;;20.33;57.36;99564.48;105551;1275;20691;-66
2023/01/05 07:08:31;;;;;;;;;1.00;1.00;;;;;20.38;57.48;99572.02;105387;1285;20051;-65
2023/01/05 07:10:58;;;;;;;;;1.00;1.00;;;;;20.39;57.40;99581.45;105305;1298;19571;-66
2023/01/05 07:13:26;;;;;;;;;;;;;;;20.43;57.64;99583.81;105493;1289;19242;-66
2023/01/05 07:15:53;;;;;;;;;1.00;1.00;;;;;20.43;57.71;99592.60;105396;1275;19979;-67
2023/01/05 07:18:21;;;;;;;;;2.00;1.00;;;;;20.45;57.87;99592.67;105397;1282;25773;-66
2023/01/05 07:20:48;;;;;;;;;1.00;1.00;;;;;20.46;57.98;99596.69;105398;1275;20686;-66
2023/01/05 07:23:15;;;;;;;;;1.00;1.00;;;;;20.47;58.13;99602.38;105457;1297;20192;-67
2023/01/05 07:25:42;;;;;;;;;1.00;1.00;;;;;20.49;58.01;99595.09;105445;1300;23166;-68
2023/01/05 07:28:10;;;;;;;;;1.00;1.00;;;;;20.50;58.54;99599.04;105371;1297;19205;-68
2023/01/05 07:30:37;;;;;;;;;1.00;1.00;;;;;20.51;58.69;99596.23;105448;1298;23123;-66
2023/01/05 07:33:04;;;;;;;;;1.00;1.00;;;;;20.51;58.71;99593.75;105398;1292;19594;-67
2023/01/05 07:35:32;;;;;;;;;5.00;5.00;;;;;20.52;58.72;99596.95;105418;1300;20684;-66
2023/01/05 07:38:01;;;;;;;;;;;;;;;20.58;59.52;99598.27;105678;1281;22811;-65
2023/01/05 07:40:29;;;;;;;;;95.50;75.00;;;;;20.60;59.97;99595.64;105468;1282;19235;-65
2023/01/05 07:42:56;;;;;;;;;75.00;59.50;;;;;20.63;60.58;99599.21;105471;1279;19329;-67
2023/01/05 07:45:23;;;;;;;;;58.00;49.00;;;;;20.62;61.03;99598.16;105373;1282;22844;-65
2023/01/05 07:47:51;;;;;;;;;42.00;39.50;;;;;20.60;60.98;99594.77;105410;1282;19970;-65
2023/01/05 07:50:18;;;;;;;;;36.00;33.00;;;;;20.61;61.16;99605.65;105539;1275;22206;-66
2023/01/05 07:52:45;;;;;;;;;30.00;28.00;;;;;20.62;61.13;99609.13;105451;1282;21835;-66
2023/01/05 07:55:13;;;;;;;;;24.00;24.00;;;;;20.60;61.01;99611.93;105431;1281;19352;-66
2023/01/05 07:57:40;;;;;;;;;;;;;;;20.60;60.94;99618.67;105476;1298;23787;-66
2023/01/05 08:00:07;;;;;;;;;19.00;18.00;;;;;20.60;60.90;99621.06;105465;1289;21617;-66
2023/01/05 08:02:34;;;;;;;;;18.00;18.00;;;;;20.61;61.06;99620.35;105415;1297;24089;-66
2023/01/05 08:05:02;;;;;;;;;21.00;20.50;;;;;20.62;61.10;99620.77;105566;1297;19731;-66
2023/01/05 08:07:29;;;;;;;;;22.00;19.00;;;;;20.64;61.07;99625.27;105485;1293;21593;-66
2023/01/05 08:15:23;;;;;;;;;12.00;12.00;;;;;20.64;61.49;99631.18;105416;1282;20041;-64
2023/01/05 08:17:50;;;;;;;;;14.00;12.00;;;;;20.67;61.44;99633.73;105398;1282;23000;-65
2023/01/05 08:20:18;;;;;;;;;;;;;;;20.69;61.62;99634.58;105349;1291;20834;-65
2023/01/05 08:22:45;;;;;;;;;10.00;10.00;;;;;20.69;61.73;99632.66;105526;1297;20060;-66
2023/01/05 08:25:12;;;;;;;;;11.00;10.00;;;;;20.68;61.62;99636.59;105427;1282;20522;-65
2023/01/05 08:27:40;;;;;;;;;12.00;9.00;;;;;20.70;61.43;99640.45;105474;1291;20837;-66
2023/01/05 08:30:07;;;;;;;;;8.50;8.00;;;;;20.68;61.53;99637.55;105511;1284;21211;-66
2023/01/05 08:32:34;;;;;;;;;8.00;8.00;;;;;20.68;61.61;99643.41;105447;1297;19321;-65
2023/01/05 08:35:02;;;;;;;;;;;;;;;20.67;61.76;99643.20;105488;1289;20782;-65
2023/01/05 08:37:29;;;;;;;;;8.00;8.00;;;;;20.68;61.79;99647.94;105442;1274;21340;-67
2023/01/05 08:39:56;;;;;;;;;;;;;;;20.67;61.87;99652.63;105411;1282;23923;-66
2023/01/05 08:42:24;;;;;;;;;5.00;5.00;;;;;20.66;61.72;99651.16;105422;1289;19120;-66
2023/01/05 08:44:51;;;;;;;;;7.00;7.00;;;;;20.65;61.55;99652.46;105423;1282;20079;-66
2023/01/05 08:47:18;;;;;;;;;7.00;7.00;;;;;20.64;61.28;99659.41;105428;1304;22792;-66
2023/01/05 08:49:46;;;;;;;;;9.50;8.00;;;;;20.62;61.52;99659.55;105533;1298;19224;-66
2023/01/05 08:52:13;;;;;;;;;5.00;5.00;;;;;20.61;61.53;99660.60;105468;1298;20073;-66
2023/01/05 08:54:40;;;;;;;;;4.00;4.00;;;;;20.59;61.37;99661.98;105435;1282;19604;-66
2023/01/05 08:57:08;;;;;;;;;4.00;4.00;;;;;20.58;61.38;99655.06;105488;1298;19166;-67
2023/01/05 08:59:35;;;;;;;;;4.00;4.00;;;;;20.56;61.45;99663.46;105601;1283;22769;-67
2023/01/05 09:02:02;;;;;;;;;4.00;4.00;;;;;20.55;61.37;99660.58;105459;1298;19576;-67
2023/01/05 09:04:30;;;;;;;;;5.00;5.00;;;;;20.54;61.49;99662.45;105456;1297;19572;-65
2023/01/05 09:06:57;;;;;;;;;4.00;4.00;;;;;20.53;61.38;99667.82;105472;1275;20070;-67
2023/01/05 09:09:24;;;;;;;;;4.00;4.00;;;;;20.52;61.45;99662.29;105379;1291;19697;-66
2023/01/05 09:11:52;;;;;;;;;;;;;;;20.53;61.32;99659.36;105341;1282;20563;-67
2023/01/05 09:14:19;;;;;;;;;3.00;3.00;;;;;20.52;61.26;99657.93;105398;1282;20107;-65
2023/01/05 09:16:46;;;;;;;;;4.00;4.00;;;;;20.54;61.26;99656.67;105428;1289;24620;-65
2023/01/05 09:19:14;;;;;;;;;2.00;2.00;;;;;20.54;61.20;99660.61;105427;1296;28363;-65
2023/01/05 09:21:41;;;;;;;;;2.00;2.00;;;;;20.55;61.06;99660.73;105412;1275;21722;-65
2023/01/05 09:24:10;;;;;;;;;;;;;;;20.57;60.91;99656.35;105484;1275;22958;-65
2023/01/05 09:26:38;;;;;;;;;2.00;2.00;;;;;20.56;61.03;99655.17;105440;1282;21024;-66
2023/01/05 09:29:05;;;;;;;;;4.00;4.00;;;;;20.56;61.04;99653.16;105528;1298;20134;-65
2023/01/05 09:31:32;;;;;;;;;2.00;2.00;;;;;20.57;60.88;99650.72;105450;1298;19362;-65
2023/01/05 09:34:00;;;;;;;;;2.00;2.00;;;;;20.57;60.70;99649.44;105470;1291;20721;-65
2023/01/05 09:36:27;;;;;;;;;2.00;2.00;;;;;20.58;60.72;99649.03;105528;1289;20344;-65
2023/01/05 09:38:55;;;;;;;;;2.00;2.00;;;;;20.57;60.74;99649.18;105468;1297;19244;-65
2023/01/05 09:41:22;;;;;;;;;4.00;2.00;;;;;20.56;60.81;99653.53;105406;1291;20731;-66
2023/01/05 09:43:50;;;;;;;;;2.00;2.00;;;;;20.56;60.64;99656.46;105448;1300;21499;-65
2023/01/05 09:46:17;;;;;;;;;;;;;;;20.54;60.57;99654.62;105423;1298;19161;-66
2023/01/05 09:48:44;;;;;;;;;2.00;2.00;;;;;20.54;60.62;99649.68;105421;1297;19228;-65
2023/01/05 09:51:12;;;;;;;;;;;;;;;20.54;60.76;99653.79;105489;1297;20176;-66
2023/01/05 09:53:39;;;;;;;;;1.50;1.50;;;;;20.53;60.48;99652.07;105392;1295;22995;-66
2023/01/05 09:56:06;;;;;;;;;2.00;2.00;;;;;20.52;60.69;99653.95;105473;1275;19237;-66
2023/01/05 09:58:34;;;;;;;;;3.00;2.00;;;;;20.53;60.47;99646.41;105445;1297;20185;-65
2023/01/05 10:01:01;;;;;;;;;2.00;2.00;;;;;20.53;60.59;99638.83;105438;1301;19222;-66
2023/01/05 10:03:28;;;;;;;;;2.00;2.00;;;;;20.56;60.44;99640.89;105435;1275;19266;-66
2023/01/05 10:05:56;;;;;;;;;1.50;1.50;;;;;20.56;60.38;99644.02;105429;1291;21544;-66
2023/01/05 10:08:23;;;;;;;;;;;;;;;20.56;60.41;99635.90;105461;1297;19068;-66
2023/01/05 10:13:32;;;;;;;;;4.50;4.00;;;;;20.59;60.27;99638.94;105486;1297;20092;-67
2023/01/05 10:15:59;;;;;;;;;1.00;1.00;;;;;20.62;60.47;99638.23;105471;1284;24355;-66
2023/01/05 10:18:27;;;;;;;;;;;;;;;20.63;60.78;99637.73;105316;1301;20915;-66
2023/01/05 10:20:54;;;;;;;;;2.00;2.00;;;;;20.63;60.98;99630.04;105470;1298;20079;-66
2023/01/05 10:23:21;;;;;;;;;2.00;2.00;;;;;20.64;61.06;99636.33;105459;1297;19190;-66
2023/01/05 10:25:49;;;;;;;;;1.00;1.00;;;;;20.63;61.11;99629.29;105406;1297;20778;-66
2023/01/05 10:28:16;;;;;;;;;1.00;1.00;;;;;20.66;61.17;99637.09;105430;1282;20156;-65
2023/01/05 10:30:43;;;;;;;;;2.00;2.00;;;;;20.67;61.23;99631.10;105434;1282;19612;-66
2023/01/05 10:33:11;;;;;;;;;1.00;1.00;;;;;20.67;61.14;99632.36;105470;1297;20731;-64
2023/01/05 10:35:39;;;;;;;;;;;;;;;20.66;61.20;99626.03;105364;1282;20075;-64
2023/01/05 10:38:08;;;;;;;;;1.00;1.00;;;;;20.68;61.12;99627.45;105483;1283;19553;-64
2023/01/05 10:40:35;;;;;;;;;1.00;1.00;;;;;20.67;61.16;99629.04;105448;1282;19225;-67
2023/01/05 10:43:03;;;;;;;;;1.00;1.00;;;;;20.67;61.20;99631.10;105371;1281;22200;-65
2023/01/05 10:45:30;;;;;;;;;2.00;2.00;;;;;20.68;61.01;99623.94;105400;1282;19585;-65
2023/01/05 10:47:57;;;;;;;;;;;;;;;20.67;60.94;99626.16;105304;1289;19257;-65
2023/01/05 10:50:24;;;;;;;;;1.00;1.00;;;;;20.65;60.98;99627.13;105375;1282;21661;-65
2023/01/05 10:52:52;;;;;;;;;2.00;2.00;;;;;20.65;60.90;99625.98;105488;1298;19153;-66
2023/01/05 10:55:19;;;;;;;;;1.00;1.00;;;;;20.66;61.12;99626.41;105434;1294;19333;-65
2023/01/05 10:57:46;;;;;;;;;1.00;1.00;;;;;20.67;61.30;99629.17;105449;1297;21701;-66
2023/01/05 11:00:14;;;;;;;;;1.00;1.00;;;;;20.67;61.16;99629.16;105439;1297;19313;-66
2023/01/05 11:02:41;;;;;;;;;2.00;1.00;;;;;20.67;61.32;99626.11;105351;1278;20888;-66
2023/01/05 11:05:09;;;;;;;;;;;;;;;20.66;61.30;99626.91;105450;1300;20214;-66
2023/01/05 11:07:36;;;;;;;;;1.50;1.00;;;;;20.65;61.35;99630.00;105499;1300;19205;-65
2023/01/05 11:10:03;;;;;;;;;1.00;1.00;;;;;20.66;61.25;99630.01;105354;1289;19443;-64
2023/01/05 11:12:31;;;;;;;;;1.00;1.00;;;;;20.68;61.20;99631.73;105410;1282;23034;-65
2023/01/05 11:14:58;;;;;;;;;1.00;1.00;;;;;20.71;61.02;99629.02;105373;1298;19473;-65
2023/01/05 11:17:25;;;;;;;;;4.00;2.00;;;;;20.69;61.20;99628.30;105345;1300;19255;-64
2023/01/05 11:19:53;;;;;;;;;1.00;1.00;;;;;20.68;61.23;99631.98;105395;1289;22806;-66
2023/01/05 11:22:20;;;;;;;;;1.50;1.00;;;;;20.68;61.33;99637.92;105381;1275;19208;-65
2023/01/05 11:24:49;;;;;;;;;2.00;2.00;;;;;20.67;60.93;99633.03;105485;1275;20620;-65
2023/01/05 11:27:17;;;;;;;;;2.00;2.00;;;;;20.67;60.83;99639.68;105448;1281;20087;-66
2023/01/05 11:29:44;;;;;;;;;1.00;1.00;;;;;20.68;60.85;99636.08;105368;1275;20847;-66
2023/01/05 11:32:11;;;;;;;;;1.00;1.00;;;;;20.67;60.89;99638.02;105431;1291;19528;-65
2023/01/05 11:34:39;;;;;;;;;;;;;;;20.67;60.93;99639.02;105473;1297;21594;-67
2023/01/05 11:37:06;;;;;;;;;1.00;1.00;;;;;20.67;60.80;99642.45;105318;1298;19162;-67
2023/01/05 11:39:33;;;;;;;;;2.00;2.00;;;;;20.66;60.87;99637.13;105411;1275;20725;-67
2023/01/05 11:42:01;;;;;;;;;1.00;1.00;;;;;20.66;60.74;99639.48;105293;1282;21587;-68
2023/01/05 11:44:28;;;;;;;;;;;;;;;20.65;60.46;99635.86;105286;1300;24765;-67
2023/01/05 11:46:55;;;;;;;;;;;;;;;20.63;60.62;99636.06;105283;1296;20381;-67
2023/01/05 11:49:23;;;;;;;;;1.00;1.00;;;;;20.63;60.70;99642.09;105387;1283;23153;-66
2023/01/05 11:51:50;;;;;;;;;1.00;1.00;;;;;20.62;60.75;99643.76;105412;1283;19244;-66
2023/01/05 11:54:17;;;;;;;;;1.00;1.00;;;;;20.61;60.66;99645.95;105453;1290;20757;-66
2023/01/05 11:56:45;;;;;;;;;1.00;1.00;;;;;20.61;60.62;99641.50;105421;1282;20073;-67
2023/01/05 11:59:13;;;;;;;;;1.00;1.00;;;;;20.61;60.56;99646.69;105339;1298;19206;-66
2023/01/05 12:01:40;;;;;;;;;;;;;;;20.59;60.58;99647.06;105474;1281;20816;-67
2023/01/05 12:04:07;;;;;;;;;1.00;1.00;;;;;20.59;60.57;99649.41;105429;1291;21627;-67
2023/01/05 12:06:35;;;;;;;;;1.00;1.00;;;;;20.59;60.54;99650.42;105489;1281;19658;-67
2023/01/05 12:09:02;;;;;;;;;1.00;1.00;;;;;20.59;60.46;99652.73;105456;1281;22414;-67